Time;durP1;ratioP1;P1;durP2;ratioP2;P2;SDS_P1;SDS_P2;PMS_P1;PMS_P2;Temp;Humidity;BMP_temperature;BMP_pressure;BME280_temperature;BME280_humidity;BME280_pressure;Samples;Min_cycle;Max_cycle;Signal;HPM_P1;HPM_P2
2023/06/04 00:00:38;;;;;;;9.60;5.82;;;;;;;;;;5032803;28;20087;-64
2023/06/04 00:03:05;;;;;;;10.50;6.28;;;;;;;;;;5031052;28;20405;-63
2023/06/04 00:05:32;;;;;;;16.90;6.63;;;;;;;;;;5033374;28;20041;-61
2023/06/04 00:07:59;;;;;;;10.98;6.50;;;;;;;;;;5036624;28;20056;-63
2023/06/04 00:10:26;;;;;;;11.95;6.75;;;;;;;;;;5032977;28;20040;-65
2023/06/04 00:12:52;;;;;;;12.38;6.60;;;;;;;;;;5035183;28;20060;-65
2023/06/04 00:15:19;;;;;;;12.32;6.88;;;;;;;;;;5034863;28;20387;-66
2023/06/04 00:17:46;;;;;;;13.63;7.35;;;;;;;;;;5034650;28;20049;-66
2023/06/04 00:20:13;;;;;;;13.18;7.70;;;;;;;;;;5035063;28;20041;-66
2023/06/04 00:22:41;;;;;;;10.95;6.95;;;;;;;;;;5033348;28;20045;-65
2023/06/04 00:25:09;;;;;;;12.02;6.93;;;;;;;;;;5033892;28;20052;-65
2023/06/04 00:27:36;;;;;;;11.55;7.00;;;;;;;;;;5032230;28;20041;-66
2023/06/04 00:30:03;;;;;;;11.55;7.40;;;;;;;;;;5024946;28;20072;-66
2023/06/04 00:32:29;;;;;;;11.43;6.80;;;;;;;;;;5035240;28;20092;-67
2023/06/04 00:34:57;;;;;;;13.63;7.28;;;;;;;;;;5036933;28;20120;-67
2023/06/04 00:37:25;;;;;;;13.25;7.40;;;;;;;;;;5036810;28;20052;-66
2023/06/04 00:39:52;;;;;;;17.05;8.82;;;;;;;;;;5038681;28;20037;-65
2023/06/04 00:42:18;;;;;;;16.05;8.95;;;;;;;;;;5036758;28;20753;-65
2023/06/04 00:44:45;;;;;;;14.23;8.57;;;;;;;;;;5035734;28;20053;-65
2023/06/04 00:47:12;;;;;;;14.93;9.18;;;;;;;;;;5036665;28;20045;-65
2023/06/04 00:49:39;;;;;;;16.13;8.73;;;;;;;;;;5035911;28;20036;-65
2023/06/04 00:52:06;;;;;;;18.27;10.13;;;;;;;;;;5030312;28;20345;-67
2023/06/04 00:54:33;;;;;;;13.57;8.95;;;;;;;;;;5037218;28;20040;-69
2023/06/04 00:57:00;;;;;;;18.17;9.60;;;;;;;;;;5038003;28;20071;-67
2023/06/04 00:59:27;;;;;;;18.83;9.68;;;;;;;;;;5051872;28;20037;-66
2023/06/04 01:02:07;;;;;;;14.60;8.50;;;;;;;;;;5037615;28;20041;-66
2023/06/04 01:04:35;;;;;;;14.55;8.88;;;;;;;;;;5037376;28;20033;-65
2023/06/04 01:07:03;;;;;;;15.20;9.70;;;;;;;;;;5040321;28;20128;-66
2023/06/04 01:09:30;;;;;;;16.88;10.07;;;;;;;;;;5039089;28;20064;-67
2023/06/04 01:12:01;;;;;;;14.10;9.10;;;;;;;;;;5037812;28;20036;-66
2023/06/04 01:14:29;;;;;;;15.05;9.20;;;;;;;;;;5037826;28;20034;-65
2023/06/04 01:17:15;;;;;;;15.88;9.82;;;;;;;;;;5051917;28;20179;-65
2023/06/04 01:19:54;;;;;;;16.45;10.07;;;;;;;;;;5050900;28;20041;-68
2023/06/04 01:22:41;;;;;;;15.60;9.80;;;;;;;;;;5036625;28;20047;-65
2023/06/04 01:25:19;;;;;;;15.73;9.70;;;;;;;;;;5005911;28;20025;-67
2023/06/04 01:27:50;;;;;;;17.08;9.63;;;;;;;;;;5037395;28;20115;-66
2023/06/04 01:30:17;;;;;;;15.73;9.82;;;;;;;;;;5038049;28;20107;-66
2023/06/04 01:32:46;;;;;;;18.98;9.95;;;;;;;;;;5035611;28;20124;-66
2023/06/04 01:35:13;;;;;;;17.88;11.05;;;;;;;;;;5036795;28;20043;-65
2023/06/04 01:37:39;;;;;;;18.45;10.52;;;;;;;;;;5035373;28;20136;-65
2023/06/04 01:40:08;;;;;;;17.30;10.70;;;;;;;;;;5035842;28;20989;-65
2023/06/04 01:42:35;;;;;;;17.10;11.18;;;;;;;;;;5033215;28;20065;-65
2023/06/04 01:45:01;;;;;;;18.00;10.88;;;;;;;;;;5030251;28;20549;-65
2023/06/04 01:47:28;;;;;;;17.08;11.80;;;;;;;;;;5036147;28;20033;-64
2023/06/04 01:49:55;;;;;;;20.13;12.43;;;;;;;;;;5035944;28;20081;-66
2023/06/04 01:52:21;;;;;;;21.80;12.30;;;;;;;;;;5048930;28;20037;-67
2023/06/04 01:54:52;;;;;;;19.63;12.23;;;;;;;;;;5037558;28;20041;-64
2023/06/04 01:57:20;;;;;;;16.63;11.23;;;;;;;;;;5036114;28;20088;-65
2023/06/04 01:59:46;;;;;;;18.60;11.48;;;;;;;;;;5036302;28;20099;-66
2023/06/04 02:02:14;;;;;;;16.13;10.45;;;;;;;;;;5033718;28;20580;-65
2023/06/04 02:04:42;;;;;;;18.60;11.27;;;;;;;;;;5035374;28;20037;-66
2023/06/04 02:07:17;;;;;;;17.33;11.35;;;;;;;;;;5035901;28;20508;-64
2023/06/04 02:09:44;;;;;;;16.42;10.27;;;;;;;;;;5035204;28;20045;-65
2023/06/04 02:12:11;;;;;;;20.23;11.50;;;;;;;;;;5036364;28;20045;-69
2023/06/04 02:14:37;;;;;;;19.20;10.88;;;;;;;;;;5035053;28;20041;-65
2023/06/04 02:17:04;;;;;;;15.68;10.32;;;;;;;;;;5035516;28;20045;-65
2023/06/04 02:19:33;;;;;;;18.73;11.00;;;;;;;;;;5036971;28;20464;-63
2023/06/04 02:21:59;;;;;;;18.08;11.25;;;;;;;;;;5050780;28;20099;-64
2023/06/04 02:24:26;;;;;;;19.63;10.65;;;;;;;;;;5035993;28;22000;-65
2023/06/04 02:26:53;;;;;;;17.48;9.70;;;;;;;;;;5030995;28;20036;-65
2023/06/04 02:29:19;;;;;;;19.02;10.63;;;;;;;;;;5046629;28;20037;-67
2023/06/04 02:31:46;;;;;;;21.80;12.02;;;;;;;;;;5036266;28;20051;-65
2023/06/04 02:34:13;;;;;;;17.23;9.73;;;;;;;;;;5050550;28;20041;-66
2023/06/04 02:36:39;;;;;;;18.27;9.85;;;;;;;;;;5052315;28;20433;-65
2023/06/04 02:39:06;;;;;;;17.58;9.70;;;;;;;;;;5029889;28;20064;-64
2023/06/04 02:41:32;;;;;;;16.70;10.63;;;;;;;;;;5033325;28;20256;-64
2023/06/04 02:43:59;;;;;;;19.17;10.15;;;;;;;;;;5034888;28;20095;-65
2023/06/04 02:46:26;;;;;;;20.92;11.77;;;;;;;;;;5035693;28;20037;-60
2023/06/04 02:48:52;;;;;;;18.25;10.13;;;;;;;;;;5035816;28;20041;-62
2023/06/04 02:51:19;;;;;;;16.35;9.90;;;;;;;;;;5050696;28;20501;-62
2023/06/04 02:53:47;;;;;;;15.18;8.75;;;;;;;;;;5014766;28;20095;-59
2023/06/04 02:56:13;;;;;;;15.60;9.70;;;;;;;;;;5016341;28;20042;-63
2023/06/04 02:58:49;;;;;;;15.48;9.50;;;;;;;;;;5015411;28;20080;-65
2023/06/04 03:01:20;;;;;;;18.85;10.45;;;;;;;;;;5012926;28;20033;-64
2023/06/04 03:03:47;;;;;;;18.73;10.45;;;;;;;;;;5015214;28;20048;-64
2023/06/04 03:06:15;;;;;;;18.30;9.82;;;;;;;;;;5015303;28;20037;-64
2023/06/04 03:08:41;;;;;;;17.10;10.07;;;;;;;;;;5015113;28;20047;-65
2023/06/04 03:11:08;;;;;;;17.35;9.75;;;;;;;;;;5015845;28;20052;-64
2023/06/04 03:13:35;;;;;;;18.90;9.38;;;;;;;;;;5014384;28;20041;-64
2023/06/04 03:16:02;;;;;;;19.58;10.93;;;;;;;;;;5032527;28;20367;-64
2023/06/04 03:18:29;;;;;;;21.23;11.20;;;;;;;;;;5010632;28;20479;-59
2023/06/04 03:20:56;;;;;;;21.23;11.50;;;;;;;;;;5011611;28;20042;-63
2023/06/04 03:23:22;;;;;;;24.05;10.20;;;;;;;;;;5010790;28;20949;-64
2023/06/04 03:25:49;;;;;;;18.23;10.93;;;;;;;;;;5011093;28;20038;-61
2023/06/04 03:28:16;;;;;;;23.75;11.35;;;;;;;;;;5012273;28;20060;-61
2023/06/04 03:30:42;;;;;;;24.55;11.32;;;;;;;;;;5011506;28;20065;-61
2023/06/04 03:33:09;;;;;;;22.65;11.57;;;;;;;;;;5010913;28;20725;-62
2023/06/04 03:35:36;;;;;;;19.08;11.35;;;;;;;;;;5011419;28;20098;-62
2023/06/04 03:38:03;;;;;;;20.30;11.88;;;;;;;;;;5011315;28;21885;-60
2023/06/04 03:40:29;;;;;;;21.98;12.43;;;;;;;;;;5007932;28;20122;-64
2023/06/04 03:42:56;;;;;;;19.65;12.35;;;;;;;;;;5024022;28;20037;-61
2023/06/04 03:45:22;;;;;;;29.17;12.38;;;;;;;;;;5018499;28;20114;-62
2023/06/04 03:47:49;;;;;;;18.92;11.80;;;;;;;;;;5011163;28;20596;-62
2023/06/04 03:50:16;;;;;;;26.52;13.13;;;;;;;;;;5016833;28;20038;-62
2023/06/04 03:52:42;;;;;;;23.98;12.88;;;;;;;;;;5013631;28;20060;-62
2023/06/04 03:55:10;;;;;;;26.75;14.32;;;;;;;;;;5013735;28;20049;-63
2023/06/04 03:57:40;;;;;;;24.05;13.93;;;;;;;;;;5014545;28;20058;-61
2023/06/04 04:00:10;;;;;;;22.13;14.13;;;;;;;;;;5016110;28;20057;-62
2023/06/04 04:02:37;;;;;;;23.98;13.20;;;;;;;;;;5013410;28;20442;-63
2023/06/04 04:05:03;;;;;;;26.65;14.15;;;;;;;;;;5015430;28;20068;-62
2023/06/04 04:07:30;;;;;;;26.13;14.13;;;;;;;;;;5014548;28;20116;-60
2023/06/04 04:09:56;;;;;;;22.73;14.52;;;;;;;;;;5013707;28;20502;-60
2023/06/04 04:12:23;;;;;;;29.60;15.70;;;;;;;;;;5013894;28;20157;-62
2023/06/04 04:14:50;;;;;;;29.52;15.38;;;;;;;;;;5014706;28;20112;-60
2023/06/04 04:17:16;;;;;;;26.63;14.80;;;;;;;;;;5014381;28;20041;-59
2023/06/04 04:19:43;;;;;;;25.05;14.48;;;;;;;;;;5014056;28;20061;-59
2023/06/04 04:22:12;;;;;;;27.67;15.20;;;;;;;;;;5014803;28;20048;-60
2023/06/04 04:24:39;;;;;;;27.80;16.17;;;;;;;;;;5012961;28;20121;-62
2023/06/04 04:27:05;;;;;;;27.05;17.15;;;;;;;;;;5014187;28;20541;-62
2023/06/04 04:29:32;;;;;;;30.83;16.08;;;;;;;;;;5013423;28;20510;-61
2023/06/04 04:32:17;;;;;;;25.08;16.08;;;;;;;;;;5012573;28;20221;-62
2023/06/04 04:34:54;;;;;;;29.58;16.73;;;;;;;;;;5012426;28;20384;-61
2023/06/04 04:37:21;;;;;;;27.63;17.45;;;;;;;;;;5009817;28;21708;-60
2023/06/04 04:39:51;;;;;;;31.48;18.55;;;;;;;;;;5011677;28;20285;-62
2023/06/04 04:42:18;;;;;;;34.97;18.88;;;;;;;;;;5017533;28;20045;-59
2023/06/04 04:44:47;;;;;;;29.00;17.98;;;;;;;;;;5013308;28;20042;-61
2023/06/04 04:47:17;;;;;;;30.92;17.45;;;;;;;;;;5029701;28;20030;-60
2023/06/04 04:49:44;;;;;;;31.85;19.55;;;;;;;;;;5014005;28;20057;-62
2023/06/04 04:52:11;;;;;;;36.25;19.15;;;;;;;;;;5007434;28;20038;-64
2023/06/04 04:54:37;;;;;;;33.78;19.65;;;;;;;;;;5006402;28;20041;-62
2023/06/04 04:57:04;;;;;;;35.72;20.40;;;;;;;;;;5006880;28;20038;-64
2023/06/04 04:59:31;;;;;;;32.10;19.85;;;;;;;;;;5007235;28;20034;-65
2023/06/04 05:01:57;;;;;;;34.63;20.05;;;;;;;;;;5008235;28;20033;-66
2023/06/04 05:04:24;;;;;;;35.17;19.95;;;;;;;;;;5007101;28;20052;-65
2023/06/04 05:06:50;;;;;;;33.15;19.83;;;;;;;;;;5009754;28;20530;-63
2023/06/04 05:09:17;;;;;;;32.75;20.15;;;;;;;;;;5008264;28;20518;-64
2023/06/04 05:11:44;;;;;;;30.23;20.02;;;;;;;;;;5007645;28;20403;-65
2023/06/04 05:14:11;;;;;;;34.60;21.05;;;;;;;;;;5008551;28;20088;-65
2023/06/04 05:16:40;;;;;;;38.40;20.08;;;;;;;;;;5010002;28;20160;-64
2023/06/04 05:19:08;;;;;;;33.17;20.00;;;;;;;;;;5011078;28;20034;-63
2023/06/04 05:21:36;;;;;;;34.92;19.42;;;;;;;;;;5011276;28;20133;-63
2023/06/04 05:24:03;;;;;;;35.70;20.23;;;;;;;;;;5028252;28;20057;-66
2023/06/04 05:26:30;;;;;;;37.03;20.33;;;;;;;;;;5011724;28;20468;-65
2023/06/04 05:28:58;;;;;;;32.08;19.50;;;;;;;;;;5013135;28;20075;-66
2023/06/04 05:31:26;;;;;;;36.65;19.88;;;;;;;;;;5025229;28;20080;-65
2023/06/04 05:33:53;;;;;;;35.35;20.23;;;;;;;;;;5016309;28;20033;-65
2023/06/04 05:36:20;;;;;;;37.92;20.00;;;;;;;;;;5018553;28;20992;-64
2023/06/04 05:38:47;;;;;;;29.90;18.98;;;;;;;;;;5014973;28;20041;-65
2023/06/04 05:41:14;;;;;;;32.65;18.63;;;;;;;;;;5014978;28;20104;-65
2023/06/04 05:43:40;;;;;;;35.35;19.73;;;;;;;;;;5017948;28;20086;-65
2023/06/04 05:46:07;;;;;;;32.03;19.48;;;;;;;;;;5019309;28;20554;-63
2023/06/04 05:48:34;;;;;;;36.75;20.40;;;;;;;;;;5008493;28;20453;-66
2023/06/04 05:51:00;;;;;;;39.50;21.25;;;;;;;;;;5017685;28;20068;-66
2023/06/04 05:53:27;;;;;;;40.88;21.20;;;;;;;;;;5018205;28;20044;-64
2023/06/04 05:55:54;;;;;;;34.72;20.60;;;;;;;;;;5015827;28;20298;-65
2023/06/04 05:58:21;;;;;;;36.92;20.77;;;;;;;;;;5032637;28;20046;-64
2023/06/04 06:00:49;;;;;;;32.28;19.88;;;;;;;;;;5036058;28;20521;-64
2023/06/04 06:03:16;;;;;;;35.60;21.10;;;;;;;;;;5035589;28;20034;-63
2023/06/04 06:05:43;;;;;;;36.30;21.23;;;;;;;;;;5018915;28;20037;-63
2023/06/04 06:08:10;;;;;;;43.38;22.02;;;;;;;;;;5017522;28;20053;-63
2023/06/04 06:10:37;;;;;;;37.28;21.85;;;;;;;;;;5016486;28;20581;-64
2023/06/04 06:13:03;;;;;;;37.00;21.42;;;;;;;;;;5016532;28;20048;-63
2023/06/04 06:15:30;;;;;;;34.33;21.30;;;;;;;;;;5018014;28;20045;-62
2023/06/04 06:17:57;;;;;;;35.20;20.63;;;;;;;;;;5031630;28;20105;-65
2023/06/04 06:20:23;;;;;;;36.75;21.58;;;;;;;;;;5016540;28;20703;-65
2023/06/04 06:22:50;;;;;;;39.13;20.80;;;;;;;;;;5017320;28;20069;-63
2023/06/04 06:25:17;;;;;;;38.95;22.17;;;;;;;;;;5017916;28;20044;-65
2023/06/04 06:27:44;;;;;;;38.35;21.05;;;;;;;;;;5031649;28;20049;-65
2023/06/04 06:30:12;;;;;;;33.88;21.23;;;;;;;;;;5032024;28;20052;-64
2023/06/04 06:32:38;;;;;;;35.22;20.77;;;;;;;;;;5014112;28;20833;-65
2023/06/04 06:35:05;;;;;;;32.95;20.35;;;;;;;;;;5016111;28;20052;-64
2023/06/04 06:37:32;;;;;;;37.35;21.15;;;;;;;;;;5012312;28;20081;-66
2023/06/04 06:39:58;;;;;;;33.75;20.63;;;;;;;;;;5015519;28;20379;-64
2023/06/04 06:42:25;;;;;;;34.40;19.55;;;;;;;;;;5020074;28;20144;-65
2023/06/04 06:44:52;;;;;;;36.55;20.10;;;;;;;;;;5029975;28;20052;-66
2023/06/04 06:47:18;;;;;;;33.83;19.35;;;;;;;;;;5030988;28;20037;-64
2023/06/04 06:49:45;;;;;;;34.92;19.02;;;;;;;;;;5034851;28;20532;-64
2023/06/04 06:52:12;;;;;;;34.63;19.50;;;;;;;;;;5035909;28;20048;-65
2023/06/04 06:54:38;;;;;;;33.95;19.23;;;;;;;;;;5052699;28;20044;-69
2023/06/04 06:57:08;;;;;;;36.22;20.08;;;;;;;;;;5035815;28;20057;-64
2023/06/04 06:59:36;;;;;;;29.92;18.65;;;;;;;;;;5050752;28;20088;-66
2023/06/04 07:02:02;;;;;;;31.27;19.17;;;;;;;;;;5034870;28;20041;-63
2023/06/04 07:04:29;;;;;;;29.75;17.80;;;;;;;;;;5034457;28;20045;-63
2023/06/04 07:06:56;;;;;;;36.67;19.55;;;;;;;;;;5033918;28;20041;-66
2023/06/04 07:09:22;;;;;;;34.83;20.02;;;;;;;;;;5047806;28;20037;-65
2023/06/04 07:11:49;;;;;;;29.85;19.02;;;;;;;;;;5035622;28;20041;-65
2023/06/04 07:14:15;;;;;;;31.27;19.23;;;;;;;;;;5035957;28;20069;-65
2023/06/04 07:16:42;;;;;;;35.75;19.85;;;;;;;;;;5050983;28;20041;-64
2023/06/04 07:19:09;;;;;;;30.30;17.83;;;;;;;;;;5036719;28;20045;-65
2023/06/04 07:21:35;;;;;;;31.20;17.88;;;;;;;;;;5034577;28;20033;-66
2023/06/04 07:24:02;;;;;;;32.88;19.33;;;;;;;;;;5036323;28;20048;-65
2023/06/04 07:26:30;;;;;;;30.48;17.73;;;;;;;;;;5035295;28;20131;-65
2023/06/04 07:28:57;;;;;;;31.13;17.38;;;;;;;;;;5033641;28;20041;-67
2023/06/04 07:31:23;;;;;;;29.90;18.17;;;;;;;;;;5034649;28;20105;-64
2023/06/04 07:33:50;;;;;;;30.52;18.00;;;;;;;;;;5035346;28;20064;-64
2023/06/04 07:36:17;;;;;;;31.38;18.23;;;;;;;;;;5035734;28;20061;-64
2023/06/04 07:38:44;;;;;;;31.25;19.63;;;;;;;;;;5049464;28;20146;-65
2023/06/04 07:41:11;;;;;;;31.52;19.10;;;;;;;;;;5033346;28;20052;-66
2023/06/04 07:43:37;;;;;;;37.25;21.23;;;;;;;;;;5052288;28;20045;-65
2023/06/04 07:46:04;;;;;;;33.70;19.25;;;;;;;;;;5038564;28;20041;-64
2023/06/04 07:48:31;;;;;;;34.78;19.75;;;;;;;;;;5035808;28;20041;-67
2023/06/04 07:51:01;;;;;;;36.58;21.02;;;;;;;;;;5036973;28;20048;-65
2023/06/04 07:53:28;;;;;;;38.85;20.80;;;;;;;;;;5035772;28;20041;-65
2023/06/04 07:55:55;;;;;;;33.30;19.27;;;;;;;;;;5037826;28;20406;-65
2023/06/04 07:58:21;;;;;;;33.03;19.83;;;;;;;;;;5044519;28;20046;-65
2023/06/04 08:00:48;;;;;;;32.75;17.80;;;;;;;;;;5042028;28;20044;-63
2023/06/04 08:03:15;;;;;;;33.38;19.33;;;;;;;;;;5033011;28;20097;-64
2023/06/04 08:05:41;;;;;;;34.60;20.40;;;;;;;;;;5032780;28;20029;-64
2023/06/04 08:08:08;;;;;;;35.95;19.40;;;;;;;;;;5037683;28;20236;-63
2023/06/04 08:10:35;;;;;;;32.13;18.75;;;;;;;;;;5047330;28;20044;-66
2023/06/04 08:13:02;;;;;;;34.65;19.05;;;;;;;;;;5048869;28;20049;-65
2023/06/04 08:15:28;;;;;;;36.90;19.88;;;;;;;;;;5050915;28;20041;-63
2023/06/04 08:17:55;;;;;;;34.50;19.48;;;;;;;;;;5033364;28;20044;-63
2023/06/04 08:20:22;;;;;;;31.70;18.92;;;;;;;;;;5035496;28;20033;-68
2023/06/04 08:22:48;;;;;;;35.20;19.75;;;;;;;;;;5035859;28;20563;-63
2023/06/04 08:25:15;;;;;;;32.47;19.30;;;;;;;;;;5038665;28;21328;-66
2023/06/04 08:27:42;;;;;;;31.25;18.90;;;;;;;;;;5035287;28;20100;-64
2023/06/04 08:30:10;;;;;;;32.47;19.30;;;;;;;;;;5031904;28;20041;-65
2023/06/04 08:32:37;;;;;;;29.98;18.40;;;;;;;;;;5042751;28;20486;-64
2023/06/04 08:35:04;;;;;;;35.45;19.63;;;;;;;;;;5040011;28;20037;-64
2023/06/04 08:37:32;;;;;;;32.70;19.13;;;;;;;;;;5041952;28;20049;-65
2023/06/04 08:39:59;;;;;;;36.00;19.45;;;;;;;;;;5037052;28;20136;-65
2023/06/04 08:42:33;;;;;;;30.35;18.10;;;;;;;;;;5034481;28;20029;-64
2023/06/04 08:45:00;;;;;;;32.55;19.63;;;;;;;;;;5039530;28;20049;-64
2023/06/04 08:47:27;;;;;;;31.98;18.92;;;;;;;;;;5042143;28;20528;-62
2023/06/04 08:49:55;;;;;;;30.60;17.80;;;;;;;;;;5032386;28;20033;-64
2023/06/04 08:52:21;;;;;;;31.95;19.55;;;;;;;;;;5033857;28;20123;-63
2023/06/04 08:54:51;;;;;;;29.73;18.23;;;;;;;;;;5037909;28;20453;-66
2023/06/04 08:57:20;;;;;;;34.05;18.00;;;;;;;;;;5040630;28;20037;-64
2023/06/04 08:59:47;;;;;;;37.45;18.70;;;;;;;;;;5025103;28;20033;-63
2023/06/04 09:02:18;;;;;;;31.45;18.02;;;;;;;;;;5019457;28;20042;-64
2023/06/04 09:04:45;;;;;;;30.52;18.25;;;;;;;;;;5016240;28;20045;-65
2023/06/04 09:07:13;;;;;;;33.80;19.17;;;;;;;;;;5017723;28;20050;-65
2023/06/04 09:09:41;;;;;;;31.88;17.13;;;;;;;;;;5018224;28;20107;-64
2023/06/04 09:12:11;;;;;;;35.80;18.23;;;;;;;;;;5021706;28;20061;-63
2023/06/04 09:14:37;;;;;;;30.25;18.25;;;;;;;;;;5016661;28;20061;-65
2023/06/04 09:17:05;;;;;;;30.60;18.08;;;;;;;;;;5019481;28;20667;-64
2023/06/04 09:19:31;;;;;;;35.92;18.05;;;;;;;;;;5018141;28;20038;-63
2023/06/04 09:21:59;;;;;;;33.40;18.20;;;;;;;;;;5019021;28;20041;-64
2023/06/04 09:24:26;;;;;;;32.63;17.85;;;;;;;;;;5020660;28;20052;-62
2023/06/04 09:26:53;;;;;;;32.38;18.85;;;;;;;;;;5020749;28;20478;-63
2023/06/04 09:29:20;;;;;;;32.88;19.70;;;;;;;;;;5020124;28;20037;-64
2023/06/04 09:31:47;;;;;;;31.88;18.85;;;;;;;;;;5020203;28;20049;-65
2023/06/04 09:34:14;;;;;;;32.15;19.45;;;;;;;;;;5019339;28;20127;-64
2023/06/04 09:36:41;;;;;;;34.20;18.92;;;;;;;;;;5017675;28;20041;-66
2023/06/04 09:39:17;;;;;;;38.20;19.13;;;;;;;;;;5019145;28;20232;-66
2023/06/04 09:41:44;;;;;;;32.33;19.38;;;;;;;;;;5015774;28;20387;-65
2023/06/04 09:44:11;;;;;;;31.63;18.85;;;;;;;;;;5017952;28;20536;-65
2023/06/04 09:46:38;;;;;;;33.17;18.75;;;;;;;;;;5018440;28;20119;-64
2023/06/04 09:49:06;;;;;;;33.33;19.20;;;;;;;;;;5023569;28;20049;-65
2023/06/04 09:51:33;;;;;;;32.38;18.88;;;;;;;;;;5048932;28;20116;-63
2023/06/04 09:54:00;;;;;;;32.63;18.92;;;;;;;;;;5030122;28;20076;-63
2023/06/04 09:56:27;;;;;;;39.55;20.40;;;;;;;;;;5034689;28;20037;-63
2023/06/04 09:59:01;;;;;;;35.63;19.45;;;;;;;;;;5034293;28;20453;-66
2023/06/04 10:01:28;;;;;;;;;;;;;;;;;;5017801;28;20051;-65
2023/06/04 10:03:56;;;;;;;34.80;19.42;;;;;;;;;;5017031;28;19959;-64
2023/06/04 10:06:23;;;;;;;32.70;19.27;;;;;;;;;;5016979;28;20076;-66
2023/06/04 10:08:51;;;;;;;35.58;20.27;;;;;;;;;;5018019;28;20746;-64
2023/06/04 10:11:26;;;;;;;35.42;19.52;;;;;;;;;;5015824;28;20061;-67
2023/06/04 10:14:03;;;;;;;32.25;18.92;;;;;;;;;;5015356;28;20052;-62
2023/06/04 10:16:30;;;;;;;35.35;19.42;;;;;;;;;;5018167;28;20092;-66
2023/06/04 10:18:57;;;;;;;34.15;19.58;;;;;;;;;;5016123;28;20038;-64
2023/06/04 10:21:24;;;;;;;36.35;20.73;;;;;;;;;;5015150;28;20045;-64
2023/06/04 10:23:51;;;;;;;38.13;20.30;;;;;;;;;;5016828;28;20038;-66
2023/06/04 10:26:18;;;;;;;37.35;19.83;;;;;;;;;;5015800;28;20068;-66
2023/06/04 10:28:44;;;;;;;36.28;19.40;;;;;;;;;;5015203;28;20037;-65
2023/06/04 10:31:11;;;;;;;36.17;20.38;;;;;;;;;;5016048;28;20151;-65
2023/06/04 10:33:39;;;;;;;38.45;20.67;;;;;;;;;;5014759;28;20129;-64
2023/06/04 10:36:22;;;;;;;30.35;18.38;;;;;;;;;;5016069;28;20076;-65
2023/06/04 10:38:50;;;;;;;40.92;20.27;;;;;;;;;;5015982;28;20061;-63
2023/06/04 10:41:17;;;;;;;33.28;19.30;;;;;;;;;;5031231;28;20053;-64
2023/06/04 10:43:51;;;;;;;35.03;18.90;;;;;;;;;;5015779;28;20120;-65
2023/06/04 10:46:17;;;;;;;;;;;;;;;;;;5032507;28;20048;-64
2023/06/04 10:48:51;;;;;;;32.45;19.00;;;;;;;;;;5016080;28;19921;-66
2023/06/04 10:51:37;;;;;;;35.22;19.98;;;;;;;;;;5016393;28;20064;-63
2023/06/04 10:54:04;;;;;;;35.65;19.08;;;;;;;;;;5016231;28;20037;-65
2023/06/04 10:56:35;;;;;;;34.53;18.25;;;;;;;;;;5016187;28;20045;-64
2023/06/04 10:59:13;;;;;;;35.88;18.85;;;;;;;;;;5016603;28;20136;-65
2023/06/04 11:01:39;;;;;;;32.75;18.58;;;;;;;;;;5016701;28;20042;-64
2023/06/04 11:04:06;;;;;;;37.63;19.45;;;;;;;;;;5017450;28;20042;-64
2023/06/04 11:06:35;;;;;;;34.05;20.60;;;;;;;;;;5016730;28;20038;-65
2023/06/04 11:09:05;;;;;;;32.55;19.98;;;;;;;;;;5017577;28;20176;-64
2023/06/04 11:11:32;;;;;;;37.95;20.17;;;;;;;;;;5016211;28;20101;-64
2023/06/04 11:14:15;;;;;;;33.92;19.98;;;;;;;;;;5014634;28;20397;-65
2023/06/04 11:16:42;;;;;;;36.70;20.85;;;;;;;;;;5015998;28;20129;-65
2023/06/04 11:19:09;;;;;;;36.38;20.65;;;;;;;;;;5016654;28;20478;-64
2023/06/04 11:21:38;;;;;;;39.83;20.33;;;;;;;;;;5015212;28;20032;-63
2023/06/04 11:24:05;;;;;;;34.47;21.35;;;;;;;;;;5015079;28;20477;-64
2023/06/04 11:26:35;;;;;;;38.28;20.88;;;;;;;;;;5013389;28;20343;-64
2023/06/04 11:29:02;;;;;;;33.92;20.02;;;;;;;;;;5012238;28;20139;-63
2023/06/04 11:31:29;;;;;;;36.70;19.83;;;;;;;;;;5015012;28;20123;-65
2023/06/04 11:33:55;;;;;;;35.88;20.27;;;;;;;;;;5015638;28;20041;-64
2023/06/04 11:36:26;;;;;;;36.10;21.02;;;;;;;;;;5016279;28;20046;-63
2023/06/04 11:38:57;;;;;;;37.40;19.65;;;;;;;;;;5014587;28;20049;-65
2023/06/04 11:41:25;;;;;;;43.75;20.63;;;;;;;;;;5012774;28;20087;-64
2023/06/04 11:43:51;;;;;;;39.80;21.13;;;;;;;;;;5021187;28;20064;-64
2023/06/04 11:46:18;;;;;;;38.25;19.67;;;;;;;;;;5015701;28;20039;-65
2023/06/04 11:48:45;;;;;;;36.08;19.77;;;;;;;;;;5014033;28;20037;-64
2023/06/04 11:51:11;;;;;;;34.78;19.73;;;;;;;;;;5013931;28;20046;-64
2023/06/04 11:53:38;;;;;;;38.35;20.35;;;;;;;;;;5013300;28;20037;-64
2023/06/04 11:56:05;;;;;;;36.55;20.92;;;;;;;;;;5014410;28;20040;-64
2023/06/04 11:58:32;;;;;;;33.53;19.88;;;;;;;;;;5013341;28;20515;-65
2023/06/04 12:01:00;;;;;;;40.08;20.50;;;;;;;;;;5013066;28;20152;-65
2023/06/04 12:03:39;;;;;;;36.15;21.05;;;;;;;;;;5014435;28;20042;-64
2023/06/04 12:06:19;;;;;;;37.72;20.00;;;;;;;;;;5014621;28;20056;-64
2023/06/04 12:08:49;;;;;;;34.80;18.80;;;;;;;;;;5014109;28;20575;-64
2023/06/04 12:11:35;;;;;;;31.10;18.58;;;;;;;;;;5013785;28;20111;-64
2023/06/04 12:14:16;;;;;;;39.60;19.73;;;;;;;;;;5013141;28;20037;-63
2023/06/04 12:16:42;;;;;;;32.88;18.50;;;;;;;;;;5014333;28;20041;-63
2023/06/04 12:19:10;;;;;;;31.25;19.02;;;;;;;;;;5014723;28;20041;-64
2023/06/04 12:21:36;;;;;;;32.28;18.70;;;;;;;;;;5013713;28;20510;-64
2023/06/04 12:24:21;;;;;;;29.83;17.70;;;;;;;;;;5016003;28;20106;-63
2023/06/04 12:26:48;;;;;;;31.55;18.08;;;;;;;;;;5017406;28;20049;-61
2023/06/04 12:29:15;;;;;;;36.28;18.50;;;;;;;;;;5020074;28;20661;-62
2023/06/04 12:31:43;;;;;;;28.98;17.85;;;;;;;;;;5019527;28;20040;-64
2023/06/04 12:34:11;;;;;;;29.90;17.48;;;;;;;;;;5021410;28;20458;-65
2023/06/04 12:36:38;;;;;;;36.00;18.70;;;;;;;;;;5019369;28;20068;-64
2023/06/04 12:39:06;;;;;;;32.35;17.83;;;;;;;;;;5017679;28;20538;-64
2023/06/04 12:41:35;;;;;;;32.03;18.05;;;;;;;;;;5016407;28;20334;-64
2023/06/04 12:44:02;;;;;;;34.50;18.08;;;;;;;;;;5018056;28;20111;-62
2023/06/04 12:46:29;;;;;;;25.45;16.02;;;;;;;;;;5031997;28;20087;-65
2023/06/04 12:48:56;;;;;;;32.17;17.27;;;;;;;;;;5016225;28;21812;-66
2023/06/04 12:51:23;;;;;;;27.92;16.92;;;;;;;;;;5017974;28;20029;-64
2023/06/04 12:53:50;;;;;;;32.92;17.33;;;;;;;;;;5017609;28;20095;-66
2023/06/04 12:56:17;;;;;;;28.90;16.05;;;;;;;;;;5016924;28;20124;-63
2023/06/04 12:58:43;;;;;;;30.33;17.08;;;;;;;;;;5017572;28;20818;-65
2023/06/04 13:01:11;;;;;;;33.13;16.13;;;;;;;;;;5035008;28;20034;-64
2023/06/04 13:03:38;;;;;;;29.25;15.75;;;;;;;;;;5020340;28;20852;-64
2023/06/04 13:06:05;;;;;;;29.60;16.55;;;;;;;;;;5021008;28;20042;-64
2023/06/04 13:08:32;;;;;;;28.80;16.35;;;;;;;;;;5017411;28;20044;-65
2023/06/04 13:10:59;;;;;;;27.02;15.93;;;;;;;;;;5018759;28;20064;-64
2023/06/04 13:13:26;;;;;;;30.90;16.40;;;;;;;;;;5017167;28;20037;-63
2023/06/04 13:15:52;;;;;;;28.50;16.20;;;;;;;;;;5018300;28;20064;-66
2023/06/04 13:18:19;;;;;;;23.75;14.60;;;;;;;;;;5017533;28;20064;-64
2023/06/04 13:20:46;;;;;;;28.63;16.15;;;;;;;;;;5017006;28;20844;-64
2023/06/04 13:23:12;;;;;;;29.05;15.27;;;;;;;;;;5016544;28;20534;-64
2023/06/04 13:25:39;;;;;;;25.92;15.38;;;;;;;;;;5017246;28;20038;-65
2023/06/04 13:28:07;;;;;;;26.40;15.73;;;;;;;;;;5034609;28;20390;-64
2023/06/04 13:30:36;;;;;;;27.08;15.10;;;;;;;;;;5031781;28;20038;-64
2023/06/04 13:33:03;;;;;;;24.73;14.50;;;;;;;;;;5015211;28;20398;-63
2023/06/04 13:35:30;;;;;;;24.48;14.20;;;;;;;;;;5015541;28;20029;-66
2023/06/04 13:37:57;;;;;;;25.17;14.82;;;;;;;;;;5016101;28;20037;-65
2023/06/04 13:40:24;;;;;;;24.90;15.15;;;;;;;;;;5017416;28;20060;-65
2023/06/04 13:42:50;;;;;;;26.25;14.27;;;;;;;;;;5024499;28;20038;-64
2023/06/04 13:45:19;;;;;;;25.30;14.32;;;;;;;;;;5017226;28;20132;-65
2023/06/04 13:47:48;;;;;;;24.95;13.80;;;;;;;;;;5017058;28;20037;-65
2023/06/04 13:50:14;;;;;;;22.55;13.10;;;;;;;;;;5018447;28;20060;-64
2023/06/04 13:52:41;;;;;;;20.85;12.75;;;;;;;;;;5033688;28;20041;-65
2023/06/04 13:55:08;;;;;;;24.75;12.65;;;;;;;;;;5031091;28;20038;-65
2023/06/04 13:57:35;;;;;;;22.20;13.32;;;;;;;;;;5015234;28;20041;-64
2023/06/04 14:00:01;;;;;;;27.65;12.25;;;;;;;;;;5016388;28;20199;-64
2023/06/04 14:02:28;;;;;;;23.95;12.65;;;;;;;;;;5014925;28;20083;-66
2023/06/04 14:04:55;;;;;;;22.60;12.32;;;;;;;;;;5029721;28;20502;-67
2023/06/04 14:07:21;;;;;;;20.60;12.23;;;;;;;;;;5014972;28;20382;-64
2023/06/04 14:09:48;;;;;;;21.90;11.98;;;;;;;;;;5015946;28;20042;-66
2023/06/04 14:12:17;;;;;;;20.73;11.73;;;;;;;;;;5015037;28;20049;-66
2023/06/04 14:14:44;;;;;;;20.17;11.40;;;;;;;;;;5014740;28;20125;-64
2023/06/04 14:17:11;;;;;;;22.10;11.90;;;;;;;;;;5014241;28;20108;-68
2023/06/04 14:19:40;;;;;;;22.38;12.15;;;;;;;;;;5014463;28;20565;-64
2023/06/04 14:22:06;;;;;;;20.90;12.60;;;;;;;;;;5031140;28;20041;-63